Time;durP1;ratioP1;P1;durP2;ratioP2;P2;SDS_P1;SDS_P2;PMS_P1;PMS_P2;Temp;Humidity;BMP_temperature;BMP_pressure;BME280_temperature;BME280_humidity;BME280_pressure;Samples;Min_cycle;Max_cycle;Signal;HPM_P1;HPM_P2
2022/12/28 00:01:14;;;;;;;27.38;10.60;;;;;;;;;;6257332;28;20935;-67
2022/12/28 00:04:14;;;;;;;23.65;9.35;;;;;;;;;;6231380;28;20048;-65
2022/12/28 00:07:15;;;;;;;29.27;10.00;;;;;;;;;;6241037;28;20075;-63
2022/12/28 00:10:16;;;;;;;28.48;10.25;;;;;;;;;;6244460;28;20053;-63
2022/12/28 00:13:17;;;;;;;24.42;9.65;;;;;;;;;;6242752;28;20075;-63
2022/12/28 00:16:27;;;;;;;21.25;8.25;;;;;;;;;;6239323;28;20056;-66
2022/12/28 00:19:28;;;;;;;25.45;9.40;;;;;;;;;;6242544;28;20160;-63
2022/12/28 00:22:28;;;;;;;23.30;8.98;;;;;;;;;;6239031;28;20042;-63
2022/12/28 00:25:29;;;;;;;20.17;8.60;;;;;;;;;;6238695;28;20077;-63
2022/12/28 00:28:30;;;;;;;19.88;7.88;;;;;;;;;;6242494;28;20037;-63
2022/12/28 00:31:31;;;;;;;22.08;9.13;;;;;;;;;;6266397;28;20053;-67
2022/12/28 00:34:32;;;;;;;18.67;8.38;;;;;;;;;;6242770;28;20477;-64
2022/12/28 00:37:33;;;;;;;20.08;8.63;;;;;;;;;;6246920;28;20056;-67
2022/12/28 00:40:33;;;;;;;22.40;9.68;;;;;;;;;;6262110;28;20060;-64
2022/12/28 00:43:34;;;;;;;23.35;8.77;;;;;;;;;;6245564;28;20040;-63
2022/12/28 00:46:36;;;;;;;21.05;8.60;;;;;;;;;;6264068;28;20083;-64
2022/12/28 00:49:37;;;;;;;22.02;8.35;;;;;;;;;;6247171;28;20205;-63
2022/12/28 00:52:38;;;;;;;21.88;8.43;;;;;;;;;;6240479;28;20052;-62
2022/12/28 00:55:40;;;;;;;21.48;8.93;;;;;;;;;;6241172;28;20489;-63
2022/12/28 00:58:41;;;;;;;24.50;8.65;;;;;;;;;;6253536;28;20049;-63
2022/12/28 01:01:42;;;;;;;20.08;8.23;;;;;;;;;;6259399;28;20563;-63
2022/12/28 01:04:42;;;;;;;26.20;8.15;;;;;;;;;;6238300;28;20041;-64
2022/12/28 01:07:43;;;;;;;26.33;8.63;;;;;;;;;;6241317;28;21210;-62
2022/12/28 01:10:44;;;;;;;28.17;8.43;;;;;;;;;;6238959;28;20093;-67
2022/12/28 01:13:46;;;;;;;26.80;8.27;;;;;;;;;;6240726;28;20084;-63
2022/12/28 01:16:47;;;;;;;21.35;8.02;;;;;;;;;;6240392;28;20578;-63
2022/12/28 01:19:48;;;;;;;19.90;7.88;;;;;;;;;;6239060;28;20049;-63
2022/12/28 01:22:48;;;;;;;22.90;9.52;;;;;;;;;;6237715;28;20042;-63
2022/12/28 01:25:49;;;;;;;23.40;8.18;;;;;;;;;;6239720;28;20041;-63
2022/12/28 01:28:50;;;;;;;19.77;8.95;;;;;;;;;;6264036;28;20045;-63
2022/12/28 01:31:50;;;;;;;21.38;8.65;;;;;;;;;;6241813;28;20042;-63
2022/12/28 01:34:51;;;;;;;19.73;8.10;;;;;;;;;;6248474;28;20132;-63
2022/12/28 01:37:55;;;;;;;22.85;9.60;;;;;;;;;;6240749;28;20143;-62
2022/12/28 01:40:56;;;;;;;26.05;11.98;;;;;;;;;;6240255;28;20138;-63
2022/12/28 01:43:56;;;;;;;28.58;11.88;;;;;;;;;;6244151;28;20521;-63
2022/12/28 01:47:03;;;;;;;27.48;11.90;;;;;;;;;;6244253;28;21186;-63
2022/12/28 01:50:10;;;;;;;25.00;10.65;;;;;;;;;;6243078;28;20053;-63
2022/12/28 01:53:11;;;;;;;28.45;11.10;;;;;;;;;;6249269;28;20037;-63
2022/12/28 01:56:11;;;;;;;24.25;10.98;;;;;;;;;;6241528;28;20301;-62
2022/12/28 01:59:12;;;;;;;30.83;13.13;;;;;;;;;;6242780;28;20045;-63
2022/12/28 02:02:13;;;;;;;34.20;12.18;;;;;;;;;;6252610;28;20061;-63
2022/12/28 02:05:14;;;;;;;31.73;11.75;;;;;;;;;;6242957;28;20045;-63
2022/12/28 02:08:40;;;;;;;30.05;12.48;;;;;;;;;;6242347;28;20052;-63
2022/12/28 02:11:40;;;;;;;24.67;11.32;;;;;;;;;;6243632;28;20045;-63
2022/12/28 02:14:43;;;;;;;31.30;12.20;;;;;;;;;;6241785;28;22368;-63
2022/12/28 02:17:44;;;;;;;27.15;12.85;;;;;;;;;;6242107;28;20049;-63
2022/12/28 02:20:53;;;;;;;32.15;13.02;;;;;;;;;;6243428;28;20063;-63
2022/12/28 02:23:57;;;;;;;25.92;12.85;;;;;;;;;;6245205;28;20061;-62
2022/12/28 02:27:26;;;;;;;30.75;11.40;;;;;;;;;;6234100;28;20057;-63
2022/12/28 02:30:34;;;;;;;24.98;9.98;;;;;;;;;;6252177;28;20092;-62
2022/12/28 02:33:43;;;;;;;28.80;12.73;;;;;;;;;;6244531;28;20053;-62
2022/12/28 02:36:58;;;;;;;30.17;12.38;;;;;;;;;;6252810;28;20045;-63
2022/12/28 02:40:04;;;;;;;34.55;14.07;;;;;;;;;;6246636;28;20071;-63
2022/12/28 02:43:05;;;;;;;30.75;13.68;;;;;;;;;;6253963;28;20079;-62
2022/12/28 02:53:10;;;;;;;36.92;14.75;;;;;;;;;;6242701;28;20174;-63
2022/12/28 02:56:38;;;;;;;26.23;11.07;;;;;;;;;;6245051;28;20045;-62
2022/12/28 02:59:54;;;;;;;24.88;10.50;;;;;;;;;;6264528;28;20067;-62
2022/12/28 03:03:19;;;;;;;33.58;15.90;;;;;;;;;;6248309;28;20099;-64
2022/12/28 03:10:31;;;;;;;20.70;9.23;;;;;;;;;;6245992;28;20069;-62
2022/12/28 03:13:58;;;;;;;32.55;11.05;;;;;;;;;;6257219;28;20111;-63
2022/12/28 03:34:05;;;;;;;23.83;8.98;;;;;;;;;;6246669;28;20059;-63
2022/12/28 03:37:24;;;;;;;19.77;8.77;;;;;;;;;;6245997;28;20140;-62
2022/12/28 03:40:40;;;;;;;24.77;9.15;;;;;;;;;;6243703;28;20057;-63
2022/12/28 03:43:48;;;;;;;27.70;10.77;;;;;;;;;;6239983;28;20045;-63
2022/12/28 03:46:59;;;;;;;24.40;9.20;;;;;;;;;;6240550;28;20045;-64
2022/12/28 03:50:00;;;;;;;18.67;8.60;;;;;;;;;;6249827;28;20064;-63
2022/12/28 03:53:01;;;;;;;19.92;7.80;;;;;;;;;;6241705;28;20084;-63
2022/12/28 03:56:15;;;;;;;17.65;7.45;;;;;;;;;;6241120;28;20036;-63
2022/12/28 03:59:17;;;;;;;20.83;7.60;;;;;;;;;;6239420;28;20046;-66
2022/12/28 04:02:17;;;;;;;21.88;8.60;;;;;;;;;;6243381;28;20052;-64
2022/12/28 04:05:20;;;;;;;21.67;11.98;;;;;;;;;;6262067;28;20661;-62
2022/12/28 04:08:21;;;;;;;23.35;12.65;;;;;;;;;;6238810;28;20048;-63
2022/12/28 04:11:22;;;;;;;19.90;9.68;;;;;;;;;;6241364;28;20053;-63
2022/12/28 04:14:23;;;;;;;16.42;8.25;;;;;;;;;;6248183;28;20074;-66
2022/12/28 04:17:25;;;;;;;15.77;6.50;;;;;;;;;;6244352;28;20102;-63
2022/12/28 04:20:25;;;;;;;16.67;9.02;;;;;;;;;;6242544;28;20414;-63
2022/12/28 04:23:27;;;;;;;15.88;8.23;;;;;;;;;;6239653;28;20140;-63
2022/12/28 04:26:27;;;;;;;14.48;6.40;;;;;;;;;;6240418;28;20131;-64
2022/12/28 04:29:28;;;;;;;19.02;9.23;;;;;;;;;;6242990;28;20096;-63
2022/12/28 04:32:28;;;;;;;17.15;8.40;;;;;;;;;;6243597;28;20037;-63
2022/12/28 04:35:31;;;;;;;15.85;7.75;;;;;;;;;;6239946;28;20064;-63
2022/12/28 04:38:33;;;;;;;15.55;8.80;;;;;;;;;;6265312;28;20080;-63
2022/12/28 04:41:35;;;;;;;20.65;9.27;;;;;;;;;;6241689;28;20045;-63
2022/12/28 04:44:36;;;;;;;19.92;10.13;;;;;;;;;;6239774;28;20042;-64
2022/12/28 04:47:38;;;;;;;22.30;11.90;;;;;;;;;;6241555;28;20147;-63
2022/12/28 04:50:38;;;;;;;16.83;9.55;;;;;;;;;;6240998;28;20045;-63
2022/12/28 04:53:40;;;;;;;19.52;9.27;;;;;;;;;;6238713;28;20611;-62
2022/12/28 04:56:41;;;;;;;27.90;12.48;;;;;;;;;;6255277;28;20045;-63
2022/12/28 04:59:42;;;;;;;38.63;16.80;;;;;;;;;;6243564;28;20056;-62
2022/12/28 05:02:42;;;;;;;45.05;18.75;;;;;;;;;;6241495;28;20045;-63
2022/12/28 05:05:43;;;;;;;32.15;15.93;;;;;;;;;;6262466;28;20060;-64
2022/12/28 05:08:44;;;;;;;18.85;9.55;;;;;;;;;;6253952;28;20060;-63
2022/12/28 05:11:45;;;;;;;21.27;9.83;;;;;;;;;;6267516;28;20523;-62
2022/12/28 05:14:45;;;;;;;37.03;17.38;;;;;;;;;;6242901;28;20049;-63
2022/12/28 05:17:46;;;;;;;39.72;17.35;;;;;;;;;;6242969;28;20041;-63
2022/12/28 05:20:46;;;;;;;49.90;18.80;;;;;;;;;;6238438;28;20044;-63
2022/12/28 05:23:48;;;;;;;55.17;20.27;;;;;;;;;;6244315;28;20080;-63
2022/12/28 05:26:49;;;;;;;53.30;19.70;;;;;;;;;;6247027;28;20084;-63
2022/12/28 05:29:49;;;;;;;55.92;20.05;;;;;;;;;;6231598;28;20573;-63
2022/12/28 05:32:50;;;;;;;55.65;19.80;;;;;;;;;;6244488;28;20065;-63
2022/12/28 05:35:50;;;;;;;54.53;18.48;;;;;;;;;;6251242;28;20068;-63
2022/12/28 05:38:52;;;;;;;42.25;16.33;;;;;;;;;;6256326;28;20052;-62
2022/12/28 05:41:52;;;;;;;36.03;13.50;;;;;;;;;;6264007;28;20094;-63
2022/12/28 05:44:53;;;;;;;29.75;12.75;;;;;;;;;;6240523;28;20049;-63
2022/12/28 05:47:54;;;;;;;26.40;11.65;;;;;;;;;;6265179;28;20111;-63
2022/12/28 05:50:58;;;;;;;27.67;12.30;;;;;;;;;;6260735;28;20080;-63
2022/12/28 05:54:00;;;;;;;30.30;13.05;;;;;;;;;;6257008;28;20048;-63
2022/12/28 05:57:00;;;;;;;35.53;14.90;;;;;;;;;;6245216;28;20049;-62
2022/12/28 06:00:02;;;;;;;37.60;16.40;;;;;;;;;;6254200;28;20073;-63
2022/12/28 06:03:02;;;;;;;48.73;18.90;;;;;;;;;;6259333;28;20493;-62
2022/12/28 06:06:06;;;;;;;42.25;18.83;;;;;;;;;;6250430;28;20053;-71
2022/12/28 06:09:06;;;;;;;44.90;19.75;;;;;;;;;;6252038;28;20040;-62
2022/12/28 06:12:07;;;;;;;47.15;18.50;;;;;;;;;;6269300;28;20132;-62
2022/12/28 06:15:08;;;;;;;43.35;16.55;;;;;;;;;;6245090;28;20045;-64
2022/12/28 06:18:08;;;;;;;40.00;15.95;;;;;;;;;;6243658;28;20408;-62
2022/12/28 06:21:15;;;;;;;41.50;16.60;;;;;;;;;;6241994;28;20055;-62
2022/12/28 06:24:17;;;;;;;35.67;16.02;;;;;;;;;;6246474;28;20041;-62
2022/12/28 06:27:18;;;;;;;;;;;;;;;;;;6266235;28;20057;-63
2022/12/28 06:30:18;;;;;;;45.28;18.17;;;;;;;;;;6257812;28;19924;-63
2022/12/28 06:33:19;;;;;;;70.20;24.90;;;;;;;;;;6256027;28;20526;-62
2022/12/28 06:36:22;;;;;;;61.58;26.55;;;;;;;;;;6243056;28;20420;-62
2022/12/28 06:39:22;;;;;;;63.25;27.08;;;;;;;;;;6240987;28;20091;-63
2022/12/28 06:42:23;;;;;;;56.13;25.35;;;;;;;;;;6241377;28;20068;-65
2022/12/28 06:45:24;;;;;;;63.10;30.92;;;;;;;;;;6263621;28;20049;-62
2022/12/28 06:48:25;;;;;;;87.93;36.83;;;;;;;;;;6255613;28;20042;-62
2022/12/28 06:51:28;;;;;;;98.18;46.67;;;;;;;;;;6256360;28;20049;-63
2022/12/28 06:54:29;;;;;;;91.80;38.45;;;;;;;;;;6262582;28;20049;-63
2022/12/28 06:57:31;;;;;;;68.18;31.50;;;;;;;;;;6244148;28;20091;-62
2022/12/28 07:00:32;;;;;;;48.72;22.30;;;;;;;;;;6243082;28;20041;-62
2022/12/28 07:03:33;;;;;;;58.97;24.45;;;;;;;;;;6244015;28;20056;-62
2022/12/28 07:06:37;;;;;;;41.67;21.13;;;;;;;;;;6243681;28;20044;-62
2022/12/28 07:09:37;;;;;;;37.45;17.67;;;;;;;;;;6257487;28;20144;-62
2022/12/28 07:12:38;;;;;;;30.35;14.63;;;;;;;;;;6257631;28;20045;-62
2022/12/28 07:15:38;;;;;;;31.48;15.27;;;;;;;;;;6242805;28;20048;-63
2022/12/28 07:18:40;;;;;;;38.60;19.15;;;;;;;;;;6242497;28;20129;-62
2022/12/28 07:21:41;;;;;;;48.83;22.83;;;;;;;;;;6237664;28;20100;-63
2022/12/28 07:24:42;;;;;;;51.67;25.02;;;;;;;;;;6243415;28;20136;-62
2022/12/28 07:27:42;;;;;;;53.47;24.27;;;;;;;;;;6262449;28;20048;-62
2022/12/28 07:30:43;;;;;;;71.68;29.27;;;;;;;;;;6252317;28;20165;-62
2022/12/28 07:33:44;;;;;;;70.50;28.27;;;;;;;;;;6239396;28;20144;-62
2022/12/28 07:36:45;;;;;;;56.53;25.73;;;;;;;;;;6244026;28;20515;-63
2022/12/28 07:39:47;;;;;;;64.88;25.83;;;;;;;;;;6239867;28;20049;-63
2022/12/28 07:42:48;;;;;;;56.50;24.08;;;;;;;;;;6242366;28;20063;-63
2022/12/28 07:45:57;;;;;;;146.32;56.58;;;;;;;;;;6240121;28;20049;-67
2022/12/28 07:48:59;;;;;;;122.60;50.88;;;;;;;;;;6241079;28;20041;-66
2022/12/28 07:52:00;;;;;;;90.97;42.63;;;;;;;;;;6241701;28;20049;-63
2022/12/28 07:55:01;;;;;;;77.88;31.02;;;;;;;;;;6242359;28;20163;-63
2022/12/28 07:58:01;;;;;;;57.75;29.27;;;;;;;;;;6265953;28;20048;-63
2022/12/28 08:01:07;;;;;;;34.28;16.25;;;;;;;;;;6257592;28;20123;-64
2022/12/28 08:04:12;;;;;;;35.67;15.82;;;;;;;;;;6241629;28;20060;-64
2022/12/28 08:07:12;;;;;;;36.40;17.67;;;;;;;;;;6265064;28;20052;-64
2022/12/28 08:10:13;;;;;;;37.92;19.50;;;;;;;;;;6254093;28;20480;-63
2022/12/28 08:13:14;;;;;;;42.75;19.60;;;;;;;;;;6257054;28;20072;-64
2022/12/28 08:16:17;;;;;;;56.85;23.00;;;;;;;;;;6257620;28;20390;-64
2022/12/28 08:19:18;;;;;;;65.43;24.80;;;;;;;;;;6249843;28;20500;-63
2022/12/28 08:22:18;;;;;;;60.67;25.17;;;;;;;;;;6262930;28;20060;-63
2022/12/28 08:25:19;;;;;;;50.85;22.92;;;;;;;;;;6241930;28;20083;-64
2022/12/28 08:28:19;;;;;;;44.33;21.88;;;;;;;;;;6261805;28;20055;-63
2022/12/28 08:31:22;;;;;;;52.92;21.50;;;;;;;;;;6254030;28;20180;-63
2022/12/28 08:34:25;;;;;;;42.88;17.10;;;;;;;;;;6239840;28;20103;-63
2022/12/28 08:37:26;;;;;;;45.38;17.83;;;;;;;;;;6251508;28;20045;-65
2022/12/28 08:40:28;;;;;;;34.50;15.30;;;;;;;;;;6262488;28;20056;-66
2022/12/28 08:43:30;;;;;;;34.08;13.15;;;;;;;;;;6241635;28;20044;-66
2022/12/28 08:46:33;;;;;;;35.95;14.43;;;;;;;;;;6260761;28;20049;-66
2022/12/28 08:49:34;;;;;;;33.30;14.10;;;;;;;;;;6264875;28;20059;-67
2022/12/28 08:52:34;;;;;;;30.30;14.77;;;;;;;;;;6265457;28;20037;-66
2022/12/28 08:55:35;;;;;;;25.17;11.43;;;;;;;;;;6264496;28;20072;-68
2022/12/28 08:58:37;;;;;;;28.50;12.10;;;;;;;;;;6264751;28;20459;-66
2022/12/28 09:01:38;;;;;;;29.88;12.27;;;;;;;;;;6265442;28;20052;-66
2022/12/28 09:04:39;;;;;;;23.50;10.67;;;;;;;;;;6265199;28;20057;-66
2022/12/28 09:07:40;;;;;;;29.90;10.57;;;;;;;;;;6265033;28;21190;-67
2022/12/28 09:10:41;;;;;;;25.65;9.25;;;;;;;;;;6246045;28;20091;-67
2022/12/28 09:13:41;;;;;;;24.40;9.73;;;;;;;;;;6240533;28;20160;-65
2022/12/28 09:16:42;;;;;;;29.67;13.02;;;;;;;;;;6239482;28;20690;-68
2022/12/28 09:19:43;;;;;;;35.15;15.77;;;;;;;;;;6257617;28;20053;-65
2022/12/28 09:22:44;;;;;;;31.42;13.65;;;;;;;;;;6252410;28;20060;-65
2022/12/28 09:25:46;;;;;;;49.97;17.65;;;;;;;;;;6256531;28;20055;-65
2022/12/28 09:28:48;;;;;;;40.45;16.95;;;;;;;;;;6256080;28;20073;-67
2022/12/28 09:31:48;;;;;;;;;;;;;;;;;;6261794;28;20049;-65
2022/12/28 09:34:51;;;;;;;43.33;17.17;;;;;;;;;;6259320;28;19925;-66
2022/12/28 09:37:51;;;;;;;44.75;18.48;;;;;;;;;;6265166;28;20047;-66
2022/12/28 09:40:52;;;;;;;42.03;17.45;;;;;;;;;;6264368;28;20045;-66
2022/12/28 09:44:08;;;;;;;36.53;14.13;;;;;;;;;;6264871;28;20048;-66
2022/12/28 09:47:21;;;;;;;35.35;15.38;;;;;;;;;;6264234;28;20707;-66
2022/12/28 09:50:30;;;;;;;35.97;15.93;;;;;;;;;;6265202;28;20103;-66
2022/12/28 09:53:33;;;;;;;58.03;18.92;;;;;;;;;;6265273;28;20048;-66
2022/12/28 09:56:36;;;;;;;27.73;11.77;;;;;;;;;;6264200;28;20143;-65
2022/12/28 09:59:36;;;;;;;20.67;9.82;;;;;;;;;;6264815;28;20052;-70
2022/12/28 10:02:39;;;;;;;26.30;9.68;;;;;;;;;;6265202;28;20053;-66
2022/12/28 10:05:40;;;;;;;26.58;9.75;;;;;;;;;;6264699;28;20539;-65
2022/12/28 10:08:47;;;;;;;22.90;9.43;;;;;;;;;;6264459;28;20183;-63
2022/12/28 10:11:47;;;;;;;20.30;9.77;;;;;;;;;;6260817;28;20130;-65
2022/12/28 10:14:48;;;;;;;20.13;9.27;;;;;;;;;;6246167;28;20508;-66
2022/12/28 10:17:48;;;;;;;24.42;11.48;;;;;;;;;;6247717;28;20049;-66
2022/12/28 10:20:50;;;;;;;40.08;13.98;;;;;;;;;;6246049;28;20049;-66
2022/12/28 10:23:54;;;;;;;49.85;16.05;;;;;;;;;;6244510;28;20049;-66
2022/12/28 10:26:57;;;;;;;55.72;19.42;;;;;;;;;;6249107;28;20049;-65
2022/12/28 10:30:00;;;;;;;38.13;15.45;;;;;;;;;;6267968;28;20107;-66
2022/12/28 10:33:01;;;;;;;31.80;15.05;;;;;;;;;;6268234;28;20083;-66
2022/12/28 10:36:02;;;;;;;74.05;26.17;;;;;;;;;;6260151;28;20052;-67
2022/12/28 10:39:03;;;;;;;136.38;41.72;;;;;;;;;;6265726;28;20068;-71
2022/12/28 10:42:04;;;;;;;56.17;22.15;;;;;;;;;;6267624;28;20055;-65
2022/12/28 10:45:16;;;;;;;41.05;19.17;;;;;;;;;;6267501;28;20052;-66
2022/12/28 10:48:37;;;;;;;32.10;16.58;;;;;;;;;;6267484;28;20045;-66
2022/12/28 10:51:57;;;;;;;31.45;14.75;;;;;;;;;;6258548;28;20110;-66
2022/12/28 10:54:58;;;;;;;46.65;15.75;;;;;;;;;;6258038;28;20060;-66
2022/12/28 10:58:20;;;;;;;24.20;10.23;;;;;;;;;;6256873;28;20041;-75
2022/12/28 11:01:27;;;;;;;23.38;10.27;;;;;;;;;;6265063;28;20059;-77
2022/12/28 11:04:28;;;;;;;21.00;11.88;;;;;;;;;;6267374;28;20068;-75
2022/12/28 11:07:37;;;;;;;25.58;10.82;;;;;;;;;;6267753;28;20048;-67
2022/12/28 11:10:39;;;;;;;23.25;11.10;;;;;;;;;;6243410;28;20041;-66
2022/12/28 11:13:40;;;;;;;22.80;9.57;;;;;;;;;;6226861;28;20049;-64
2022/12/28 11:16:41;;;;;;;33.13;12.40;;;;;;;;;;6227505;28;20046;-75
2022/12/28 11:19:41;;;;;;;40.67;14.52;;;;;;;;;;6230109;28;20449;-69
2022/12/28 11:22:43;;;;;;;20.15;8.27;;;;;;;;;;6222779;28;20084;-66
2022/12/28 11:25:44;;;;;;;23.30;8.37;;;;;;;;;;6227855;28;20574;-66
2022/12/28 11:28:48;;;;;;;17.52;6.88;;;;;;;;;;6229045;28;20047;-66
2022/12/28 11:31:54;;;;;;;20.38;8.10;;;;;;;;;;6222659;28;20095;-66
2022/12/28 11:34:58;;;;;;;22.88;9.75;;;;;;;;;;6228527;28;20054;-68
2022/12/28 11:38:01;;;;;;;23.98;9.73;;;;;;;;;;6226938;28;20092;-69
2022/12/28 11:41:02;;;;;;;21.67;9.18;;;;;;;;;;6221522;28;20041;-72
2022/12/28 11:44:04;;;;;;;21.88;8.68;;;;;;;;;;6226846;28;20506;-71
2022/12/28 11:47:21;;;;;;;15.68;6.30;;;;;;;;;;6233106;28;20119;-77
2022/12/28 11:50:40;;;;;;;25.27;9.15;;;;;;;;;;6224081;28;20503;-66
2022/12/28 11:53:44;;;;;;;15.93;5.95;;;;;;;;;;6221784;28;20057;-66
2022/12/28 11:56:45;;;;;;;30.98;10.80;;;;;;;;;;6227250;28;20060;-66
2022/12/28 11:59:45;;;;;;;18.75;6.60;;;;;;;;;;6227882;28;20076;-67
2022/12/28 12:02:57;;;;;;;22.40;9.80;;;;;;;;;;6221414;28;20042;-70
2022/12/28 12:05:57;;;;;;;25.33;14.00;;;;;;;;;;6226399;28;20041;-66
2022/12/28 12:08:58;;;;;;;24.95;10.68;;;;;;;;;;6228635;28;20493;-69
2022/12/28 12:12:04;;;;;;;11.93;5.15;;;;;;;;;;6221052;28;20114;-66
2022/12/28 12:15:20;;;;;;;10.25;4.43;;;;;;;;;;6221797;28;20420;-66
2022/12/28 12:18:24;;;;;;;12.13;4.82;;;;;;;;;;6225321;28;20086;-70
2022/12/28 12:21:36;;;;;;;8.63;3.70;;;;;;;;;;6223592;28;20625;-66
2022/12/28 12:24:44;;;;;;;;;;;;;;;;;;6225480;28;20053;-65
2022/12/28 12:27:55;;;;;;;12.40;4.78;;;;;;;;;;6224113;28;19971;-65
2022/12/28 12:30:56;;;;;;;12.45;6.70;;;;;;;;;;6225952;28;20047;-65
2022/12/28 12:34:13;;;;;;;12.00;4.50;;;;;;;;;;6225024;28;20415;-65
2022/12/28 12:37:43;;;;;;;93.10;28.27;;;;;;;;;;6226366;28;20045;-66
2022/12/28 12:41:29;;;;;;;20.67;10.77;;;;;;;;;;6221938;28;20053;-66
2022/12/28 12:44:51;;;;;;;11.48;4.47;;;;;;;;;;6229203;28;20762;-65
2022/12/28 12:47:58;;;;;;;9.05;4.75;;;;;;;;;;6224807;28;20148;-65
2022/12/28 12:51:20;;;;;;;11.35;5.13;;;;;;;;;;6223477;28;20465;-66
2022/12/28 12:54:43;;;;;;;20.73;9.97;;;;;;;;;;6225752;28;20111;-66
2022/12/28 12:58:04;;;;;;;12.13;4.68;;;;;;;;;;6226234;28;20589;-71
2022/12/28 13:01:35;;;;;;;11.90;5.18;;;;;;;;;;6224773;28;20041;-67
2022/12/28 13:04:39;;;;;;;15.17;6.63;;;;;;;;;;6225342;28;20469;-62
2022/12/28 13:07:40;;;;;;;13.85;6.47;;;;;;;;;;6224262;28;20382;-64
2022/12/28 13:10:44;;;;;;;12.75;5.35;;;;;;;;;;6245031;28;20100;-72
2022/12/28 13:13:50;;;;;;;19.48;7.45;;;;;;;;;;6243727;28;20073;-66
2022/12/28 13:16:53;;;;;;;14.95;7.22;;;;;;;;;;6252941;28;20037;-66
2022/12/28 13:20:18;;;;;;;15.57;5.55;;;;;;;;;;6255741;28;20053;-66
2022/12/28 13:23:21;;;;;;;15.20;6.78;;;;;;;;;;6238512;28;20045;-65
2022/12/28 13:26:26;;;;;;;25.77;9.57;;;;;;;;;;6241334;28;20056;-67
2022/12/28 13:29:34;;;;;;;18.50;10.30;;;;;;;;;;6238476;28;20359;-65
2022/12/28 13:32:35;;;;;;;16.30;5.97;;;;;;;;;;6237725;28;20049;-65
2022/12/28 13:35:35;;;;;;;14.55;6.80;;;;;;;;;;6241748;28;20115;-66
2022/12/28 13:38:36;;;;;;;17.42;9.38;;;;;;;;;;6241715;28;20046;-66
2022/12/28 13:41:42;;;;;;;18.55;8.80;;;;;;;;;;6241024;28;20085;-69
2022/12/28 13:44:43;;;;;;;15.45;6.90;;;;;;;;;;6244062;28;20385;-65
2022/12/28 13:47:50;;;;;;;15.90;7.80;;;;;;;;;;6244570;28;20075;-68
2022/12/28 13:50:52;;;;;;;19.23;8.27;;;;;;;;;;6247863;28;20467;-65
2022/12/28 13:53:59;;;;;;;25.77;11.25;;;;;;;;;;6238596;28;20389;-65
2022/12/28 13:56:59;;;;;;;31.48;11.70;;;;;;;;;;6242283;28;20049;-65
2022/12/28 14:00:00;;;;;;;37.22;16.50;;;;;;;;;;6240794;28;20161;-65
2022/12/28 14:03:09;;;;;;;29.00;11.88;;;;;;;;;;6244186;28;20041;-65
2022/12/28 14:06:13;;;;;;;29.17;11.13;;;;;;;;;;6244896;28;20464;-65
2022/12/28 14:09:19;;;;;;;22.77;9.85;;;;;;;;;;6267078;28;20106;-64
2022/12/28 14:12:20;;;;;;;17.23;8.60;;;;;;;;;;6250144;28;20481;-64
2022/12/28 14:15:21;;;;;;;22.58;8.02;;;;;;;;;;6243302;28;20049;-65
2022/12/28 14:18:23;;;;;;;19.30;7.20;;;;;;;;;;6246118;28;20045;-66
2022/12/28 14:21:47;;;;;;;16.48;7.45;;;;;;;;;;6244530;28;20049;-66
2022/12/28 14:25:02;;;;;;;13.90;5.28;;;;;;;;;;6242643;28;20049;-66
2022/12/28 14:28:05;;;;;;;13.25;5.90;;;;;;;;;;6246393;28;20399;-65
2022/12/28 14:31:07;;;;;;;15.45;6.38;;;;;;;;;;6244234;28;20113;-68
2022/12/28 14:34:23;;;;;;;10.38;4.43;;;;;;;;;;6239917;28;20054;-68
2022/12/28 14:37:39;;;;;;;14.02;7.43;;;;;;;;;;6243399;28;20049;-65
2022/12/28 14:40:39;;;;;;;14.68;6.38;;;;;;;;;;6245419;28;20049;-66
2022/12/28 14:43:41;;;;;;;17.65;7.05;;;;;;;;;;6244737;28;20053;-65
2022/12/28 14:46:42;;;;;;;15.15;6.80;;;;;;;;;;6246198;28;20049;-68
2022/12/28 14:49:43;;;;;;;16.05;6.03;;;;;;;;;;6246429;28;20049;-65
2022/12/28 14:52:46;;;;;;;17.40;6.63;;;;;;;;;;6253120;28;20048;-65
2022/12/28 14:56:01;;;;;;;18.73;8.10;;;;;;;;;;6264537;28;20037;-66
2022/12/28 14:59:02;;;;;;;19.75;9.18;;;;;;;;;;6240621;28;20046;-71
2022/12/28 15:02:04;;;;;;;28.38;13.80;;;;;;;;;;6240912;28;20059;-65
2022/12/28 15:05:35;;;;;;;26.80;13.05;;;;;;;;;;6244058;28;20045;-66
2022/12/28 15:08:38;;;;;;;29.08;15.00;;;;;;;;;;6245959;28;20040;-70
2022/12/28 15:11:39;;;;;;;34.42;14.32;;;;;;;;;;6242503;28;20087;-69
2022/12/28 15:14:40;;;;;;;38.55;19.45;;;;;;;;;;6239761;28;20072;-65
2022/12/28 15:17:40;;;;;;;35.90;14.23;;;;;;;;;;6260580;28;20041;-66
2022/12/28 15:20:41;;;;;;;35.22;13.43;;;;;;;;;;6251649;28;20112;-66
2022/12/28 15:23:42;;;;;;;41.95;16.80;;;;;;;;;;6245085;28;20783;-66
2022/12/28 15:26:46;;;;;;;36.25;13.68;;;;;;;;;;6245183;28;20041;-65
2022/12/28 15:29:46;;;;;;;52.80;17.67;;;;;;;;;;6241310;28;20037;-65
2022/12/28 15:32:47;;;;;;;54.95;20.17;;;;;;;;;;6266670;28;20118;-65
2022/12/28 15:35:47;;;;;;;44.65;16.27;;;;;;;;;;6247124;28;20499;-65
2022/12/28 15:38:48;;;;;;;34.67;14.45;;;;;;;;;;6240056;28;20187;-64
2022/12/28 15:41:49;;;;;;;39.13;15.23;;;;;;;;;;6241091;28;20102;-65
2022/12/28 15:44:51;;;;;;;31.55;15.35;;;;;;;;;;6251103;28;20396;-68
2022/12/28 15:47:53;;;;;;;30.95;13.70;;;;;;;;;;6242041;28;20041;-68
2022/12/28 15:50:53;;;;;;;31.58;16.05;;;;;;;;;;6242338;28;20122;-65
2022/12/28 15:53:54;;;;;;;34.13;14.95;;;;;;;;;;6244000;28;20391;-71
2022/12/28 15:56:55;;;;;;;32.95;14.85;;;;;;;;;;6242457;28;20119;-65
2022/12/28 15:59:56;;;;;;;31.52;13.95;;;;;;;;;;6256118;28;20052;-68
2022/12/28 16:02:57;;;;;;;37.95;15.10;;;;;;;;;;6257326;28;20053;-65
2022/12/28 16:05:57;;;;;;;38.67;16.55;;;;;;;;;;6243747;28;20047;-71
2022/12/28 16:08:59;;;;;;;32.83;13.80;;;;;;;;;;6235653;28;20049;-65
2022/12/28 16:12:00;;;;;;;47.80;20.17;;;;;;;;;;6241400;28;20087;-72
2022/12/28 16:15:01;;;;;;;42.97;16.08;;;;;;;;;;6240887;28;20489;-71
2022/12/28 16:18:01;;;;;;;74.55;26.23;;;;;;;;;;6216894;28;20064;-66
2022/12/28 16:21:07;;;;;;;51.30;20.05;;;;;;;;;;6226830;28;20053;-67
2022/12/28 16:24:07;;;;;;;31.00;14.70;;;;;;;;;;6229738;28;20106;-62
2022/12/28 16:27:08;;;;;;;37.38;17.80;;;;;;;;;;6231216;28;20053;-65
2022/12/28 16:30:09;;;;;;;38.63;15.80;;;;;;;;;;6231831;28;20053;-65
2022/12/28 16:33:11;;;;;;;35.63;14.88;;;;;;;;;;6232477;28;20049;-63
2022/12/28 16:36:11;;;;;;;28.73;11.20;;;;;;;;;;6230916;28;20550;-66
2022/12/28 16:39:17;;;;;;;32.83;11.65;;;;;;;;;;6233182;28;20111;-65
2022/12/28 16:42:17;;;;;;;31.63;13.25;;;;;;;;;;6233471;28;20054;-67
2022/12/28 16:45:18;;;;;;;28.48;12.40;;;;;;;;;;6233328;28;20061;-65
2022/12/28 16:48:18;;;;;;;31.80;12.68;;;;;;;;;;6231589;28;20513;-68
2022/12/28 16:51:19;;;;;;;25.80;10.40;;;;;;;;;;6232058;28;20136;-69
2022/12/28 16:54:22;;;;;;;23.42;10.25;;;;;;;;;;6233258;28;20042;-69
2022/12/28 16:57:23;;;;;;;35.88;13.10;;;;;;;;;;6232490;28;20049;-68
2022/12/28 17:00:23;;;;;;;34.45;11.77;;;;;;;;;;6232064;28;20061;-66
2022/12/28 17:03:24;;;;;;;29.95;10.82;;;;;;;;;;6232540;28;20050;-66
2022/12/28 17:06:24;;;;;;;29.30;11.27;;;;;;;;;;6231658;28;20060;-67
2022/12/28 17:09:25;;;;;;;44.65;12.98;;;;;;;;;;6231627;28;20053;-67
2022/12/28 17:12:26;;;;;;;74.05;21.23;;;;;;;;;;6231116;28;20498;-67
2022/12/28 17:15:27;;;;;;;45.30;13.85;;;;;;;;;;6230909;28;20045;-69
2022/12/28 17:18:28;;;;;;;36.08;11.82;;;;;;;;;;6233008;28;20049;-66
2022/12/28 17:21:30;;;;;;;40.53;17.63;;;;;;;;;;6238213;28;20050;-72
2022/12/28 17:24:30;;;;;;;50.72;24.48;;;;;;;;;;6237947;28;20056;-66
2022/12/28 17:27:32;;;;;;;30.58;15.18;;;;;;;;;;6238085;28;20049;-67
2022/12/28 17:30:32;;;;;;;33.20;16.65;;;;;;;;;;6238684;28;20056;-62
2022/12/28 17:33:34;;;;;;;42.08;17.02;;;;;;;;;;6237628;28;20164;-62
2022/12/28 17:36:35;;;;;;;38.53;14.57;;;;;;;;;;6235158;28;20469;-67
2022/12/28 17:39:37;;;;;;;30.30;10.40;;;;;;;;;;6234697;28;20050;-66
2022/12/28 17:42:38;;;;;;;22.60;9.35;;;;;;;;;;6237322;28;20084;-68
2022/12/28 17:45:42;;;;;;;25.00;9.98;;;;;;;;;;6234845;28;21315;-66
2022/12/28 17:48:43;;;;;;;19.52;10.07;;;;;;;;;;6234586;28;20045;-63
2022/12/28 17:51:44;;;;;;;17.30;7.20;;;;;;;;;;6237400;28;20065;-64
2022/12/28 17:54:44;;;;;;;19.70;8.57;;;;;;;;;;6237348;28;20056;-66
2022/12/28 17:57:45;;;;;;;18.23;7.72;;;;;;;;;;6233585;28;20049;-64
2022/12/28 18:00:45;;;;;;;18.60;7.18;;;;;;;;;;6235063;28;20071;-67
2022/12/28 18:03:48;;;;;;;23.88;10.85;;;;;;;;;;6235629;28;20050;-67
2022/12/28 18:06:48;;;;;;;30.97;16.07;;;;;;;;;;6234056;28;20058;-69
2022/12/28 18:09:49;;;;;;;23.00;13.50;;;;;;;;;;6235834;28;20103;-67
2022/12/28 18:12:49;;;;;;;20.50;9.77;;;;;;;;;;6239548;28;20614;-72
2022/12/28 18:15:51;;;;;;;19.58;7.82;;;;;;;;;;6236773;28;20045;-62
2022/12/28 18:18:53;;;;;;;20.80;9.88;;;;;;;;;;6239910;28;20060;-66
2022/12/28 18:21:53;;;;;;;;;;;;;;;;;;6241510;28;20055;-71
2022/12/28 18:24:54;;;;;;;23.95;10.07;;;;;;;;;;6240451;28;20560;-67